Observations for BRISTOL LULSGATE, United Kingdom (EGGD)

EGGD 211750Z AUTO 25016KT 0150 R27/0400 FG VV/// 09/09 Q1007 RERA   
EGGD 211720Z AUTO 26020KT 0350 R27/1100 +RA VV/// 09/09 Q1007   
EGGD 211650Z 26017KT 0550 R27/P1500 RA FG VV/// 10/10 Q1007 
EGGD 211620Z 24014KT 0400 R27/1300 RA FG VV/// 10/10 Q1007  
EGGD 211550Z 23011KT 0800 R27/P1500 -RADZ FG OVC002 10/10 Q1007 REDZ
EGGD 211520Z 23012KT 0900 R27/P1500 RADZ FG OVC002 09/09 Q1007 RERA 
EGGD 211450Z AUTO 23010KT 0350 R27/0900 RA FG VV/// 09/09 Q1007 
EGGD 211420Z 23009KT 0600 R27/P1500 -RA FG OVC002 09/09 Q1007   
EGGD 211350Z 23008KT 5000 1000S -RA BR OVC002 08/08 Q1008   
EGGD 211320Z 21007KT 2000 -RA BR VCFG OVC002 08/08 Q1008 RERA   
EGGD 211250Z 16007KT 2200 RA BR BKN002 07/07 Q1009  
EGGD 211220Z 16007KT 6000 2000E RA VCFG SCT002 BKN003 06/06 Q1009   
EGGD 211150Z 15007KT 1500 -RADZ BR BKN003 06/06 Q1009   
EGGD 211120Z 15007KT 4000 -RA BR BKN004 05/05 Q1010 
EGGD 211050Z 15008KT 120V180 4000 -RA BR BKN004 05/05 Q1010 
EGGD 211020Z 13011KT 5000 -RA BR SCT002 BKN004 05/05 Q1010  
EGGD 210950Z 11008KT 4000 -RA BR BKN002 BKN005 03/03 Q1011 RERA 
EGGD 210920Z 11012KT 3000 RA BR OVC002 03/03 Q1011  
EGGD 210850Z 12012KT 3000 RA BR BKN003 03/03 Q1011  
EGGD 210820Z 12011KT 2000 RA BR OVC002 02/02 Q1012  
EGGD 210750Z AUTO 11009KT 1200 R09/1500 RA BKN001 OVC009 02/02 Q1011 REDZ   
EGGD 210720Z 12008KT 1700 RA BR OVC004 02/02 Q1012 RERA 
EGGD 210650Z AUTO 12008KT 1800 +RA BKN004/// OVC009/// //////TCU 02/02 Q1012 REDZ   
EGGD 210620Z AUTO 13008KT 5000 BR OVC013 02/02 Q1012 RERA   
EGGD 210550Z AUTO 13007KT 2500 RA BKN015 BKN031 OVC045 02/02 Q1013  
EGGD 210520Z AUTO 11008KT 3700 BR SCT041 OVC048 02/02 Q1013 
EGGD 210450Z AUTO 11006KT 3000 BR SCT003 02/02 Q1013 RERA   
EGGD 210420Z AUTO 11003KT 3300 RA OVC042/// //////TCU 02/02 Q1014   
EGGD 210350Z AUTO 12006KT 3700 BR NCD 02/02 Q1013 RERA  
EGGD 210320Z AUTO 12005KT 6000 NCD 02/02 Q1013  
EGGD 210250Z AUTO 12004KT 6000 FEW007 02/02 Q1013   
EGGD 210220Z AUTO 11004KT 6000 SCT006 02/02 Q1013   
EGGD 210150Z AUTO 11005KT 4400 BR OVC004 02/02 Q1013
EGGD 210120Z AUTO 08005KT 7000 OVC005 02/02 Q1013   
EGGD 210050Z AUTO 06004KT 8000 OVC006 02/02 Q1013   
EGGD 210020Z AUTO 05004KT 010V100 9999 BKN006 02/02 Q1012   
EGGD 202350Z AUTO VRB02KT 9999 OVC005 02/02 Q1012   
EGGD 202320Z AUTO 33004KT 300V020 7000 OVC004 02/02 Q1011   
EGGD 202250Z AUTO VRB02KT 9999 OVC005 02/02 Q1010   
EGGD 202220Z AUTO VRB03KT 9000 OVC004 02/02 Q1010   
EGGD 202150Z AUTO 03004KT 360V100 7000 OVC003 02/02 Q1009   
EGGD 202120Z AUTO 03007KT 9000 OVC003 02/02 Q1009   
EGGD 202050Z AUTO 02010KT 9999 OVC003 02/02 Q1008   
EGGD 202020Z AUTO 02009KT 7000 OVC003 02/02 Q1007   
EGGD 201950Z AUTO 01007KT 9999 OVC003 03/03 Q1006   
EGGD 201920Z 36006KT 310V030 9000 4000E BKN003 03/03 Q1005  
EGGD 201850Z 01013KT 9000 4000E SCT002 BKN003 03/03 Q1004   
EGGD 201820Z 01012KT 8000 3900E BKN002 03/03 Q1003  
EGGD 201750Z 02011KT 4000 BR BKN002 03/03 Q1002 
EGGD 201720Z 01012KT 0250 R27/0800 FG OVC001 04/04 Q1001
EGGD 201650Z 34007KT 0800 R27/P1500 -DZ FG BKN001 05/05 Q1000